createdAt,value
2018-08-04T00:00:22.868Z,99.90
2018-08-04T00:02:52.276Z,99.90
2018-08-04T00:05:21.026Z,99.90
2018-08-04T00:07:49.760Z,99.90
2018-08-04T00:10:21.037Z,99.90
2018-08-04T00:12:51.245Z,99.90
2018-08-04T00:15:24.001Z,99.90
2018-08-04T00:17:52.845Z,99.90
2018-08-04T00:20:21.727Z,99.90
2018-08-04T00:22:51.592Z,99.90
2018-08-04T00:25:20.366Z,99.90
2018-08-04T00:27:49.064Z,99.90
2018-08-04T00:30:17.865Z,99.90
2018-08-04T00:32:46.565Z,99.90
2018-08-04T00:35:15.325Z,99.90
2018-08-04T00:37:44.149Z,99.90
2018-08-04T00:40:14.107Z,99.90
2018-08-04T00:42:43.109Z,99.90
2018-08-04T00:45:13.014Z,99.90
2018-08-04T00:47:41.872Z,99.90
2018-08-04T00:50:11.052Z,99.90
2018-08-04T00:52:39.853Z,99.90
2018-08-04T00:55:08.890Z,99.90
2018-08-04T00:57:37.629Z,99.90
2018-08-04T01:00:07.532Z,99.90
2018-08-04T01:02:36.348Z,99.90
2018-08-04T01:05:05.243Z,99.90
2018-08-04T01:07:34.973Z,99.90
2018-08-04T01:10:05.233Z,99.90
2018-08-04T01:12:34.428Z,99.90
2018-08-04T01:15:03.137Z,99.90
2018-08-04T01:17:32.109Z,99.90
2018-08-04T01:20:05.503Z,99.90
2018-08-04T01:22:36.423Z,99.90
2018-08-04T01:25:06.397Z,99.90
2018-08-04T01:27:35.162Z,99.90
2018-08-04T01:30:04.984Z,99.90
2018-08-04T01:32:33.819Z,99.90
2018-08-04T01:35:03.657Z,99.90
2018-08-04T01:37:32.617Z,99.90
2018-08-04T01:40:03.680Z,99.90
2018-08-04T01:42:32.544Z,99.90
2018-08-04T01:45:01.308Z,99.90
2018-08-04T01:47:30.000Z,99.90
2018-08-04T01:49:59.624Z,99.90
2018-08-04T01:52:28.386Z,99.90
2018-08-04T01:54:57.205Z,99.90
2018-08-04T01:57:25.995Z,99.90
2018-08-04T01:59:55.717Z,99.90
2018-08-04T02:02:24.554Z,99.90
2018-08-04T02:04:57.096Z,99.90
2018-08-04T02:07:28.886Z,99.90
2018-08-04T02:09:57.646Z,99.90
2018-08-04T02:12:27.554Z,99.90
2018-08-04T02:14:56.306Z,99.90
2018-08-04T02:17:25.033Z,99.90
2018-08-04T02:19:53.850Z,99.90
2018-08-04T02:24:50.860Z,99.90
2018-08-04T02:27:19.743Z,99.90
2018-08-04T02:29:48.458Z,99.90
2018-08-04T02:32:17.114Z,99.90
2018-08-04T02:34:45.874Z,99.90
2018-08-04T02:37:14.603Z,99.90
2018-08-04T02:39:43.263Z,99.90
2018-08-04T02:42:12.043Z,99.90
2018-08-04T02:44:40.757Z,99.90
2018-08-04T02:47:09.535Z,99.90
2018-08-04T02:49:39.246Z,99.90
2018-08-04T02:52:08.006Z,99.90
2018-08-04T02:54:37.690Z,99.90
2018-08-04T02:57:06.478Z,99.90
2018-08-04T02:59:36.189Z,99.90
2018-08-04T03:02:05.874Z,99.90
2018-08-04T03:04:34.536Z,99.90
2018-08-04T03:07:03.285Z,99.90
2018-08-04T03:12:00.400Z,99.90
2018-08-04T03:14:29.269Z,99.90
2018-08-04T03:16:57.979Z,99.90
2018-08-04T03:19:26.807Z,99.90
2018-08-04T03:21:55.679Z,99.90
2018-08-04T03:24:25.441Z,99.90
2018-08-04T03:26:54.196Z,99.90
2018-08-04T03:29:22.900Z,99.90
2018-08-04T03:31:51.652Z,99.90
2018-08-04T03:34:21.408Z,99.90
2018-08-04T03:36:50.194Z,99.90
2018-08-04T03:39:18.869Z,99.90
2018-08-04T03:41:47.623Z,99.90
2018-08-04T03:44:16.291Z,99.90
2018-08-04T03:46:45.044Z,99.90
2018-08-04T03:49:13.939Z,99.90
2018-08-04T03:51:42.805Z,99.90
2018-08-04T03:54:12.063Z,99.90
2018-08-04T03:56:40.768Z,99.90
2018-08-04T03:59:09.544Z,99.90
2018-08-04T04:01:38.245Z,99.90
2018-08-04T04:04:06.951Z,99.90
2018-08-04T04:09:05.695Z,99.90
2018-08-04T04:11:36.562Z,99.90
2018-08-04T04:14:05.314Z,99.90
2018-08-04T04:16:34.122Z,99.90
2018-08-04T04:19:02.837Z,99.90
2018-08-04T04:21:31.551Z,99.90
2018-08-04T04:24:01.383Z,99.90
2018-08-04T04:26:30.046Z,99.90
2018-08-04T04:28:58.786Z,99.90
2018-08-04T04:31:27.467Z,99.90
2018-08-04T04:33:56.107Z,99.90
2018-08-04T04:36:24.780Z,99.90
2018-08-04T04:38:53.453Z,99.90
2018-08-04T04:41:22.226Z,99.90
2018-08-04T04:43:51.951Z,99.90
2018-08-04T04:48:49.191Z,99.90
2018-08-04T04:51:17.874Z,99.90
2018-08-04T04:53:46.606Z,99.90
2018-08-04T04:56:15.348Z,99.90
2018-08-04T04:58:45.075Z,99.90
2018-08-04T05:01:13.705Z,99.90
2018-08-04T05:03:42.417Z,99.90
2018-08-04T05:06:11.126Z,99.90
2018-08-04T05:08:39.922Z,99.90
2018-08-04T05:11:08.564Z,99.90
2018-08-04T05:13:37.182Z,99.90
2018-08-04T05:16:05.872Z,99.90
2018-08-04T05:18:35.547Z,99.90
2018-08-04T05:21:04.327Z,99.90
2018-08-04T05:23:33.021Z,99.90
2018-08-04T05:26:01.828Z,99.90
2018-08-04T05:28:30.535Z,99.90
2018-08-04T05:30:59.196Z,99.90
2018-08-04T05:33:28.952Z,99.90
2018-08-04T05:35:57.695Z,99.90
2018-08-04T05:38:27.347Z,99.90
2018-08-04T05:40:56.014Z,99.90
2018-08-04T05:43:24.884Z,99.90
2018-08-04T05:45:53.487Z,99.90
2018-08-04T05:48:22.253Z,99.90
2018-08-04T05:50:50.934Z,99.90
2018-08-04T05:53:19.724Z,99.90
2018-08-04T05:55:48.424Z,99.90
2018-08-04T05:58:17.678Z,99.90
2018-08-04T06:00:46.439Z,99.90
2018-08-04T06:03:15.221Z,99.90
2018-08-04T06:05:43.831Z,99.90
2018-08-04T06:08:12.569Z,99.90
2018-08-04T06:10:42.248Z,99.90
2018-08-04T06:13:11.018Z,99.90
2018-08-04T06:15:39.639Z,99.90
2018-08-04T06:18:09.424Z,99.90
2018-08-04T06:20:38.109Z,99.90
2018-08-04T06:23:06.962Z,99.90
2018-08-04T06:25:35.593Z,99.90
2018-08-04T06:28:05.064Z,99.90
2018-08-04T06:30:33.802Z,99.90
2018-08-04T06:33:02.492Z,99.90
2018-08-04T06:35:31.150Z,99.90
2018-08-04T06:37:59.958Z,99.90
2018-08-04T06:40:28.600Z,99.90
2018-08-04T06:42:57.263Z,99.90
2018-08-04T06:45:26.030Z,99.90
2018-08-04T06:47:54.765Z,99.90
2018-08-04T06:50:23.399Z,99.90
2018-08-04T06:52:53.099Z,99.90
2018-08-04T06:55:21.964Z,99.90
2018-08-04T06:57:50.650Z,99.90
2018-08-04T07:00:19.364Z,99.90
2018-08-04T07:02:48.078Z,99.90
2018-08-04T07:05:16.801Z,99.90
2018-08-04T07:07:46.305Z,99.90
2018-08-04T07:10:15.079Z,99.90
2018-08-04T07:12:43.756Z,99.90
2018-08-04T07:15:12.500Z,99.90
2018-08-04T07:17:42.206Z,99.90
2018-08-04T07:20:10.863Z,99.90
2018-08-04T07:22:39.609Z,99.90
2018-08-04T07:25:08.325Z,99.90
2018-08-04T07:27:37.025Z,99.90
2018-08-04T07:30:12.385Z,99.90
2018-08-04T07:32:42.147Z,99.90
2018-08-04T07:35:10.996Z,99.90
2018-08-04T07:37:40.560Z,99.90
2018-08-04T07:40:09.332Z,99.90
2018-08-04T07:42:38.412Z,99.90
2018-08-04T07:45:07.257Z,99.90
2018-08-04T07:47:36.034Z,99.90
2018-08-04T07:50:04.904Z,99.90
2018-08-04T07:52:33.642Z,99.90
2018-08-04T07:55:02.310Z,99.90
2018-08-04T07:57:30.996Z,99.90
2018-08-04T07:59:59.723Z,99.90
2018-08-04T08:04:56.735Z,99.90
2018-08-04T08:07:26.169Z,99.90
2018-08-04T08:09:55.155Z,99.90
2018-08-04T08:12:24.088Z,99.90
2018-08-04T08:14:52.952Z,99.90
2018-08-04T08:17:22.595Z,99.90
2018-08-04T08:19:51.295Z,99.90
2018-08-04T08:22:20.567Z,99.90
2018-08-04T08:24:49.226Z,99.90
2018-08-04T08:27:17.879Z,99.90
2018-08-04T08:29:46.623Z,99.90
2018-08-04T08:32:15.510Z,99.90
2018-08-04T08:34:44.214Z,99.90
2018-08-04T08:37:12.898Z,99.90
2018-08-04T08:39:41.562Z,99.90
2018-08-04T08:42:10.207Z,99.90
2018-08-04T08:44:38.947Z,99.90
2018-08-04T08:47:07.567Z,99.90
2018-08-04T08:49:36.238Z,99.90
2018-08-04T08:52:04.977Z,99.90
2018-08-04T08:54:34.719Z,99.90
2018-08-04T08:57:04.127Z,99.90
2018-08-04T08:59:32.906Z,99.90
2018-08-04T09:02:01.594Z,99.90
2018-08-04T09:04:30.387Z,99.90
2018-08-04T09:06:59.159Z,99.90
2018-08-04T09:09:28.450Z,99.90
2018-08-04T09:11:57.052Z,99.90
2018-08-04T09:14:27.696Z,99.90
2018-08-04T09:16:56.370Z,99.90
2018-08-04T09:19:24.977Z,99.90
2018-08-04T09:21:53.732Z,99.90
2018-08-04T09:24:22.459Z,99.90
2018-08-04T09:26:51.238Z,99.90
2018-08-04T09:29:20.036Z,99.90
2018-08-04T09:31:49.805Z,99.90
2018-08-04T09:34:18.592Z,99.90
2018-08-04T09:36:47.372Z,99.90
2018-08-04T09:39:16.066Z,99.90
2018-08-04T09:41:44.820Z,99.90
2018-08-04T09:44:13.568Z,99.90
2018-08-04T09:46:42.417Z,99.90
2018-08-04T09:49:11.173Z,99.90
2018-08-04T09:51:39.929Z,99.90
2018-08-04T09:54:08.712Z,99.90
2018-08-04T09:56:37.453Z,99.90
2018-08-04T09:59:07.188Z,99.90
2018-08-04T10:01:36.798Z,99.90
2018-08-04T10:04:06.971Z,99.90
2018-08-04T10:06:35.996Z,99.90
2018-08-04T10:09:09.589Z,99.90
2018-08-04T10:11:39.429Z,99.90
2018-08-04T10:14:09.175Z,99.90
2018-08-04T10:16:37.975Z,99.90
2018-08-04T10:19:06.728Z,99.90
2018-08-04T10:21:35.519Z,99.90
2018-08-04T10:24:04.708Z,99.90
2018-08-04T10:26:34.499Z,99.90
2018-08-04T10:29:06.361Z,99.90
2018-08-04T10:31:35.127Z,99.90
2018-08-04T10:34:03.898Z,99.90
2018-08-04T10:36:32.608Z,99.90
2018-08-04T10:39:01.289Z,99.90
2018-08-04T10:41:30.027Z,99.90
2018-08-04T10:43:58.799Z,99.90
2018-08-04T10:46:27.581Z,98.60
2018-08-04T10:48:56.947Z,99.30
2018-08-04T10:51:25.669Z,92.70
2018-08-04T10:53:55.412Z,97.10
2018-08-04T10:56:24.145Z,92.60
2018-08-04T10:58:52.870Z,91.40
2018-08-04T11:01:22.576Z,87.80
2018-08-04T11:03:51.575Z,90.80
2018-08-04T11:06:21.033Z,93.40
2018-08-04T11:08:49.850Z,94.60
2018-08-04T11:11:18.711Z,94.60
2018-08-04T11:13:47.599Z,95.40
2018-08-04T11:16:16.719Z,89.70
2018-08-04T11:18:45.427Z,87.90
2018-08-04T11:21:14.188Z,82.00
2018-08-04T11:23:42.938Z,91.00
2018-08-04T11:26:11.734Z,86.80
2018-08-04T11:28:41.494Z,78.60
2018-08-04T11:31:10.231Z,82.10
2018-08-04T11:33:38.939Z,75.20
2018-08-04T11:36:08.632Z,78.90
2018-08-04T11:38:37.352Z,75.80
2018-08-04T11:41:07.368Z,75.00
2018-08-04T11:43:36.044Z,64.80
2018-08-04T11:46:04.729Z,67.70
2018-08-04T11:48:33.535Z,61.40
2018-08-04T11:51:02.207Z,63.80
2018-08-04T11:53:30.996Z,62.70
2018-08-04T11:55:59.668Z,52.30
2018-08-04T11:58:28.525Z,53.70
2018-08-04T12:00:57.371Z,53.80
2018-08-04T12:03:26.122Z,55.90
2018-08-04T12:05:54.854Z,55.90
2018-08-04T12:08:23.548Z,54.40
2018-08-04T12:10:52.984Z,54.10
2018-08-04T12:13:21.715Z,52.40
2018-08-04T12:15:50.457Z,54.10
2018-08-04T12:18:19.251Z,53.40
2018-08-04T12:20:47.939Z,57.00
2018-08-04T12:23:16.728Z,54.80
2018-08-04T12:25:45.456Z,57.30
2018-08-04T12:28:14.184Z,55.30
2018-08-04T12:30:42.946Z,58.00
2018-08-04T12:33:11.693Z,56.10
2018-08-04T12:35:40.373Z,53.60
2018-08-04T12:38:09.141Z,58.90
2018-08-04T12:40:38.633Z,59.20
2018-08-04T12:43:07.532Z,58.40
2018-08-04T12:45:39.305Z,49.70
2018-08-04T12:48:08.054Z,50.90
2018-08-04T12:50:36.782Z,52.50
2018-08-04T12:53:05.896Z,57.70
2018-08-04T12:55:34.593Z,49.70
2018-08-04T12:58:05.085Z,47.20
2018-08-04T13:00:39.271Z,49.10
2018-08-04T13:03:07.999Z,48.60
2018-08-04T13:05:38.080Z,52.60
2018-08-04T13:08:06.819Z,48.10
2018-08-04T13:10:35.546Z,51.20
2018-08-04T13:13:04.230Z,47.00
2018-08-04T13:15:32.933Z,49.10
2018-08-04T13:18:01.641Z,43.50
2018-08-04T13:20:32.345Z,48.80
2018-08-04T13:23:01.280Z,48.20
2018-08-04T13:25:30.039Z,44.10
2018-08-04T13:27:58.756Z,57.20
2018-08-04T13:30:27.490Z,60.00
2018-08-04T13:32:56.253Z,55.00
2018-08-04T13:35:25.256Z,57.30
2018-08-04T13:37:54.069Z,54.80
2018-08-04T13:40:24.799Z,52.90
2018-08-04T13:42:53.586Z,52.40
2018-08-04T13:45:23.291Z,60.40
2018-08-04T13:47:52.016Z,61.10
2018-08-04T13:50:20.815Z,61.40
2018-08-04T13:52:49.681Z,59.80
2018-08-04T13:55:18.375Z,57.20
2018-08-04T13:57:47.208Z,58.10
2018-08-04T14:00:16.096Z,56.60
2018-08-04T14:02:44.947Z,57.20
2018-08-04T14:05:13.720Z,62.90
2018-08-04T14:07:42.662Z,60.20
2018-08-04T14:10:11.416Z,60.00
2018-08-04T14:12:40.176Z,60.90
2018-08-04T14:15:08.972Z,61.40
2018-08-04T14:17:37.779Z,63.50
2018-08-04T14:20:06.557Z,60.90
2018-08-04T14:22:35.294Z,63.30
2018-08-04T14:25:06.028Z,61.30
2018-08-04T14:27:34.706Z,62.70
2018-08-04T14:30:03.448Z,60.60
2018-08-04T14:32:34.816Z,59.60
2018-08-04T14:35:03.692Z,60.30
2018-08-04T14:37:32.551Z,60.80
2018-08-04T14:40:02.287Z,59.70
2018-08-04T14:42:31.987Z,60.90
2018-08-04T14:45:00.715Z,64.70
2018-08-04T14:47:30.369Z,60.20
2018-08-04T14:49:59.090Z,66.10
2018-08-04T14:52:27.838Z,63.20
2018-08-04T14:54:56.593Z,65.10
2018-08-04T14:57:26.301Z,66.60
2018-08-04T14:59:55.009Z,63.80
2018-08-04T15:02:23.755Z,61.70
2018-08-04T15:04:52.490Z,64.70
2018-08-04T15:07:21.144Z,61.60
2018-08-04T15:09:50.104Z,65.50
2018-08-04T15:12:18.870Z,61.90
2018-08-04T15:14:47.566Z,60.80
2018-08-04T15:17:16.261Z,63.50
2018-08-04T15:19:45.047Z,62.20
2018-08-04T15:22:14.301Z,62.10
2018-08-04T15:24:43.029Z,60.10
2018-08-04T15:27:11.729Z,60.70
2018-08-04T15:29:40.523Z,61.00
2018-08-04T15:32:09.230Z,58.00
2018-08-04T15:34:37.964Z,58.90
2018-08-04T15:37:07.699Z,60.00
2018-08-04T15:39:36.579Z,58.80
2018-08-04T15:42:06.566Z,60.10
2018-08-04T15:44:35.287Z,59.50
2018-08-04T15:47:03.985Z,56.90
2018-08-04T15:49:32.772Z,58.50
2018-08-04T15:52:01.450Z,58.60
2018-08-04T15:54:30.192Z,59.60
2018-08-04T15:56:58.942Z,59.40
2018-08-04T15:59:29.708Z,61.80
2018-08-04T16:01:58.406Z,61.00
2018-08-04T16:06:56.481Z,62.90
2018-08-04T16:09:25.189Z,63.20
2018-08-04T16:11:53.891Z,61.30
2018-08-04T16:14:23.544Z,57.30
2018-08-04T16:16:52.380Z,59.20
2018-08-04T16:19:21.028Z,61.00
2018-08-04T16:21:53.625Z,61.00
2018-08-04T16:24:22.465Z,59.30
2018-08-04T16:26:51.200Z,59.10
2018-08-04T16:29:19.865Z,58.40
2018-08-04T16:31:48.688Z,60.30
2018-08-04T16:34:17.404Z,61.10
2018-08-04T16:36:46.176Z,56.90
2018-08-04T16:39:14.953Z,57.30
2018-08-04T16:41:43.711Z,59.10
2018-08-04T16:44:12.344Z,57.60
2018-08-04T16:46:42.044Z,59.30
2018-08-04T16:49:11.805Z,61.50
2018-08-04T16:51:40.601Z,62.20
2018-08-04T16:54:10.275Z,60.20
2018-08-04T16:56:38.950Z,61.30
2018-08-04T16:59:08.847Z,61.50
2018-08-04T17:01:37.706Z,60.70
2018-08-04T17:04:06.557Z,61.90
2018-08-04T17:06:35.226Z,63.80
2018-08-04T17:09:10.207Z,65.20
2018-08-04T17:11:38.854Z,66.00
2018-08-04T17:14:08.148Z,66.10
2018-08-04T17:19:05.248Z,68.50
2018-08-04T17:21:34.061Z,69.80
2018-08-04T17:24:02.729Z,68.20
2018-08-04T17:26:31.463Z,68.50
2018-08-04T17:29:00.133Z,69.50
2018-08-04T17:31:28.890Z,71.00
2018-08-04T17:33:58.653Z,72.90
2018-08-04T17:36:27.398Z,73.00
2018-08-04T17:38:56.143Z,73.80
2018-08-04T17:41:24.948Z,75.80
2018-08-04T17:43:54.180Z,75.50
2018-08-04T17:46:22.976Z,77.00
2018-08-04T17:48:51.603Z,78.60
2018-08-04T17:51:20.777Z,78.50
2018-08-04T17:53:49.672Z,81.30
2018-08-04T17:56:18.323Z,77.60
2018-08-04T17:58:47.021Z,77.10
2018-08-04T18:01:16.772Z,77.40
2018-08-04T18:03:46.082Z,78.60
2018-08-04T18:06:15.423Z,78.40
2018-08-04T18:08:44.133Z,78.40
2018-08-04T18:11:12.867Z,78.50
2018-08-04T18:13:41.627Z,78.40
2018-08-04T18:16:10.310Z,76.70
2018-08-04T18:18:38.990Z,76.20
2018-08-04T18:21:08.524Z,76.50
2018-08-04T18:23:37.310Z,78.20
2018-08-04T18:26:07.078Z,78.20
2018-08-04T18:28:35.757Z,81.60
2018-08-04T18:31:05.591Z,84.70
2018-08-04T18:33:34.462Z,84.90
2018-08-04T18:36:03.169Z,84.40
2018-08-04T18:38:31.938Z,84.90
2018-08-04T18:41:01.346Z,84.30
2018-08-04T18:43:30.059Z,85.60
2018-08-04T18:45:58.869Z,85.70
2018-08-04T18:48:27.570Z,85.50
2018-08-04T18:50:56.375Z,86.70
2018-08-04T18:53:25.198Z,86.90
2018-08-04T18:55:54.004Z,87.60
2018-08-04T18:58:22.721Z,87.80
2018-08-04T19:00:51.493Z,88.10
2018-08-04T19:03:20.250Z,88.40
2018-08-04T19:05:48.896Z,90.00
2018-08-04T19:08:17.625Z,89.30
2018-08-04T19:10:47.194Z,89.40
2018-08-04T19:13:15.951Z,88.40
2018-08-04T19:15:44.735Z,88.40
2018-08-04T19:18:13.964Z,88.40
2018-08-04T19:20:42.754Z,88.40
2018-08-04T19:23:11.514Z,89.30
2018-08-04T19:25:44.159Z,89.90
2018-08-04T19:28:12.928Z,90.10
2018-08-04T19:30:41.643Z,90.20
2018-08-04T19:33:11.455Z,90.10
2018-08-04T19:35:40.189Z,90.00
2018-08-04T19:38:08.892Z,91.10
2018-08-04T19:40:39.755Z,91.00
2018-08-04T19:43:08.466Z,90.90
2018-08-04T19:45:37.104Z,91.50
2018-08-04T19:48:06.823Z,91.60
2018-08-04T19:50:35.524Z,90.80
2018-08-04T19:53:04.211Z,90.80
2018-08-04T19:55:35.228Z,90.30
2018-08-04T19:58:03.992Z,91.30
2018-08-04T20:00:32.752Z,90.90
2018-08-04T20:03:01.579Z,91.20
2018-08-04T20:05:30.342Z,91.40
2018-08-04T20:07:59.062Z,90.40
2018-08-04T20:10:29.759Z,91.00
2018-08-04T20:12:58.851Z,90.40
2018-08-04T20:15:27.670Z,90.40
2018-08-04T20:17:56.352Z,90.30
2018-08-04T20:22:54.411Z,90.80
2018-08-04T20:25:23.199Z,90.60
2018-08-04T20:27:52.169Z,90.60
2018-08-04T20:30:20.921Z,91.00
2018-08-04T20:32:50.316Z,91.50
2018-08-04T20:35:19.166Z,92.30
2018-08-04T20:37:48.966Z,92.40
2018-08-04T20:40:18.421Z,92.80
2018-08-04T20:42:47.489Z,92.60
2018-08-04T20:45:16.343Z,93.40
2018-08-04T20:47:46.009Z,93.80
2018-08-04T20:50:14.876Z,93.90
2018-08-04T20:52:43.553Z,94.50
2018-08-04T20:57:41.720Z,93.80
2018-08-04T21:00:10.379Z,93.70
2018-08-04T21:02:39.343Z,93.60
2018-08-04T21:05:09.524Z,93.70
2018-08-04T21:07:39.010Z,93.80
2018-08-04T21:10:08.703Z,93.50
2018-08-04T21:12:37.462Z,93.20
2018-08-04T21:15:06.303Z,93.10
2018-08-04T21:17:35.165Z,92.50
2018-08-04T21:20:04.157Z,92.30
2018-08-04T21:22:33.127Z,92.30
2018-08-04T21:25:01.847Z,92.40
2018-08-04T21:27:30.704Z,92.20
2018-08-04T21:29:59.530Z,92.60
2018-08-04T21:32:28.187Z,92.70
2018-08-04T21:34:57.925Z,92.30
2018-08-04T21:37:27.631Z,93.00
2018-08-04T21:39:56.385Z,92.70
2018-08-04T21:42:25.337Z,93.10
2018-08-04T21:44:54.134Z,93.00
2018-08-04T21:47:22.802Z,93.30
2018-08-04T21:49:51.676Z,93.80
2018-08-04T21:52:20.435Z,93.70
2018-08-04T21:54:49.869Z,93.10
2018-08-04T21:57:18.545Z,93.00
2018-08-04T21:59:47.297Z,93.00
2018-08-04T22:02:16.183Z,93.00
2018-08-04T22:04:45.093Z,93.00
2018-08-04T22:07:50.566Z,93.00
2018-08-04T22:10:19.863Z,93.70
2018-08-04T22:12:49.292Z,93.80
2018-08-04T22:15:18.039Z,93.00
2018-08-04T22:17:46.841Z,93.20
2018-08-04T22:20:17.917Z,93.00
2018-08-04T22:22:46.786Z,93.00
2018-08-04T22:25:17.859Z,93.50
2018-08-04T22:27:46.762Z,93.90
2018-08-04T22:30:17.965Z,94.00
2018-08-04T22:32:47.438Z,94.30
2018-08-04T22:35:16.251Z,98.00
2018-08-04T22:37:46.030Z,98.10
2018-08-04T22:40:15.589Z,98.60
2018-08-04T22:42:44.650Z,98.50
2018-08-04T22:46:10.191Z,98.70
2018-08-04T22:48:40.400Z,99.10
2018-08-04T22:51:09.250Z,99.90
2018-08-04T22:53:38.300Z,99.90
2018-08-04T22:56:07.287Z,99.90
2018-08-04T22:58:36.226Z,99.90
2018-08-04T23:01:05.342Z,99.90
2018-08-04T23:03:34.105Z,99.90
2018-08-04T23:06:02.993Z,99.90
2018-08-04T23:08:32.393Z,99.90
2018-08-04T23:11:01.274Z,99.80
2018-08-04T23:16:06.456Z,99.20
2018-08-04T23:18:35.206Z,99.80
2018-08-04T23:21:04.103Z,99.30
2018-08-04T23:23:32.955Z,98.00
2018-08-04T23:26:01.689Z,97.80
2018-08-04T23:28:30.536Z,97.70
2018-08-04T23:30:59.305Z,97.40
2018-08-04T23:33:28.312Z,97.90
2018-08-04T23:35:57.538Z,97.60
2018-08-04T23:38:26.503Z,97.10
2018-08-04T23:40:55.253Z,97.50
2018-08-04T23:43:25.009Z,97.10
2018-08-04T23:45:54.707Z,96.90
2018-08-04T23:48:23.465Z,97.40
2018-08-04T23:50:52.192Z,98.00
2018-08-04T23:53:20.918Z,98.30
2018-08-04T23:55:49.837Z,98.90
2018-08-04T23:58:18.658Z,99.90
